createdAt,value
2019-02-22T00:02:13.458Z,103318.39
2019-02-22T00:07:15.098Z,103325.50
2019-02-22T00:12:16.769Z,103327.48
2019-02-22T00:17:18.320Z,103329.95
2019-02-22T00:22:19.931Z,103323.03
2019-02-22T00:27:22.109Z,103321.73
2019-02-22T00:32:23.944Z,103333.66
2019-02-22T00:37:25.645Z,103332.09
2019-02-22T00:42:27.888Z,103336.15
2019-02-22T00:47:29.421Z,103341.66
2019-02-22T00:52:31.999Z,103342.59
2019-02-22T00:57:33.625Z,103342.98
2019-02-22T01:02:35.582Z,103347.56
2019-02-22T01:07:37.519Z,103343.52
2019-02-22T01:12:39.119Z,103345.45
2019-02-22T01:17:41.123Z,103345.70
2019-02-22T01:22:42.681Z,103350.02
2019-02-22T01:27:44.231Z,103368.63
2019-02-22T01:32:45.785Z,103360.00
2019-02-22T01:37:47.692Z,103372.06
2019-02-22T01:42:49.309Z,103367.84
2019-02-22T01:47:50.899Z,103385.14
2019-02-22T01:52:52.459Z,103397.70
2019-02-22T01:57:54.542Z,103398.90
2019-02-22T02:02:56.088Z,103401.52
2019-02-22T02:07:57.718Z,103397.32
2019-02-22T02:12:59.341Z,103399.94
2019-02-22T02:18:00.827Z,103390.23
2019-02-22T02:23:02.403Z,103398.63
2019-02-22T02:28:04.009Z,103402.56
2019-02-22T02:33:05.643Z,103414.08
2019-02-22T02:38:07.295Z,103406.22
2019-02-22T02:43:09.318Z,103405.56
2019-02-22T02:48:10.882Z,103402.56
2019-02-22T02:53:12.512Z,103397.32
2019-02-22T02:58:14.040Z,103406.10
2019-02-22T03:03:16.092Z,103418.01
2019-02-22T03:08:17.631Z,103419.47
2019-02-22T03:13:19.285Z,103424.05
2019-02-22T03:18:20.878Z,103417.23
2019-02-22T03:23:22.482Z,103426.25
2019-02-22T03:28:24.082Z,103434.92
2019-02-22T03:33:25.819Z,103435.69
2019-02-22T03:38:27.335Z,103432.30
2019-02-22T03:43:28.974Z,103440.28
2019-02-22T03:48:30.528Z,103437.81
2019-02-22T03:53:32.143Z,103430.06
2019-02-22T03:58:33.743Z,103435.57
2019-02-22T04:03:35.371Z,103439.11
2019-02-22T04:08:36.865Z,103446.33
2019-02-22T04:13:38.913Z,103447.09
2019-02-22T04:18:40.450Z,103456.53
2019-02-22T04:23:42.423Z,103473.55
2019-02-22T04:28:44.010Z,103471.82
2019-02-22T04:33:45.578Z,103484.80
2019-02-22T04:38:47.189Z,103483.22
2019-02-22T04:43:48.793Z,103487.14
2019-02-22T04:48:50.727Z,103480.20
2019-02-22T04:53:52.650Z,103488.33
2019-02-22T04:58:54.192Z,103496.70
2019-02-22T05:03:56.266Z,103491.73
2019-02-22T05:08:57.791Z,103490.96
2019-02-22T05:13:59.354Z,103493.30
2019-02-22T05:19:00.935Z,103496.70
2019-02-22T05:24:02.494Z,103515.66
2019-02-22T05:29:04.051Z,103524.02
2019-02-22T05:34:05.684Z,103533.59
2019-02-22T05:39:18.557Z,103537.52
2019-02-22T05:44:10.958Z,103542.86
2019-02-22T05:49:12.716Z,103547.02
2019-02-22T05:54:14.500Z,103544.56
2019-02-22T05:59:16.063Z,103552.69
2019-02-22T06:04:17.665Z,103558.31
2019-02-22T06:09:19.779Z,103555.44
2019-02-22T06:14:21.360Z,103568.30
2019-02-22T06:19:22.940Z,103584.54
2019-02-22T06:24:24.750Z,103590.22
2019-02-22T06:29:26.380Z,103593.34
2019-02-22T06:34:27.960Z,103592.45
2019-02-22T06:39:29.686Z,103592.19
2019-02-22T06:44:31.235Z,103604.91
2019-02-22T06:49:32.894Z,103616.15
2019-02-22T06:54:35.230Z,103631.09
2019-02-22T06:59:37.087Z,103627.30
2019-02-22T07:04:38.690Z,103633.58
2019-02-22T07:09:40.382Z,103631.08
2019-02-22T07:14:41.937Z,103633.95
2019-02-22T07:19:43.582Z,103635.25
2019-02-22T07:24:45.099Z,103648.25
2019-02-22T07:29:46.707Z,103646.43
2019-02-22T07:34:48.671Z,103667.13
2019-02-22T07:39:50.223Z,103667.89
2019-02-22T07:44:51.816Z,103670.44
2019-02-22T07:49:53.474Z,103673.87
2019-02-22T07:54:55.024Z,103685.34
2019-02-22T07:59:56.579Z,103698.31
2019-02-22T08:04:58.115Z,103706.09
2019-02-22T08:09:59.680Z,103712.39
2019-02-22T08:15:03.111Z,103729.34
2019-02-22T08:20:04.883Z,103733.57
2019-02-22T08:25:06.976Z,103742.52
2019-02-22T08:30:08.858Z,103745.42
2019-02-22T08:35:10.447Z,103755.94
2019-02-22T08:40:12.395Z,103750.73
2019-02-22T08:45:13.983Z,103747.08
2019-02-22T08:50:15.524Z,103747.23
2019-02-22T08:55:17.106Z,103752.09
2019-02-22T09:00:18.622Z,103754.85
2019-02-22T09:05:20.257Z,103751.81
2019-02-22T09:10:22.265Z,103747.47
2019-02-22T09:15:23.838Z,103753.86
2019-02-22T09:20:25.449Z,103756.73
2019-02-22T09:25:26.937Z,103755.44
2019-02-22T09:30:28.490Z,103774.38
2019-02-22T09:35:30.051Z,103784.58
2019-02-22T09:40:32.133Z,103801.25
2019-02-22T09:45:33.705Z,103812.35
2019-02-22T09:50:35.263Z,103817.27
2019-02-22T09:55:36.854Z,103812.53
2019-02-22T10:00:38.399Z,103806.79
2019-02-22T10:05:39.969Z,103806.34
2019-02-22T10:10:41.583Z,103808.34
2019-02-22T10:15:43.406Z,103809.39
2019-02-22T10:20:45.049Z,103803.19
2019-02-22T10:25:46.587Z,103804.86
2019-02-22T10:30:48.145Z,103804.70
2019-02-22T10:35:49.703Z,103802.50
2019-02-22T10:40:51.301Z,103802.91
2019-02-22T10:45:52.854Z,103799.62
2019-02-22T10:50:54.413Z,103803.27
2019-02-22T10:55:56.307Z,103809.25
2019-02-22T11:00:57.930Z,103820.84
2019-02-22T11:05:59.491Z,103815.23
2019-02-22T11:11:01.204Z,103811.62
2019-02-22T11:16:02.745Z,103810.03
2019-02-22T11:21:04.276Z,103813.36
2019-02-22T11:26:06.303Z,103809.73
2019-02-22T11:31:07.839Z,103806.11
2019-02-22T11:36:09.681Z,103800.21
2019-02-22T11:41:11.250Z,103800.03
2019-02-22T11:46:12.861Z,103794.31
2019-02-22T11:51:14.455Z,103800.13
2019-02-22T11:56:16.009Z,103800.92
2019-02-22T12:01:17.838Z,103796.24
2019-02-22T12:06:19.362Z,103785.54
2019-02-22T12:11:20.934Z,103794.70
2019-02-22T12:16:22.926Z,103789.13
2019-02-22T12:21:24.498Z,103796.61
2019-02-22T12:26:26.048Z,103789.19
2019-02-22T12:31:27.625Z,103795.20
2019-02-22T12:36:29.535Z,103810.98
2019-02-22T12:41:31.146Z,103808.93
2019-02-22T12:46:32.676Z,103815.63
2019-02-22T12:51:34.265Z,103811.53
2019-02-22T13:01:39.449Z,103805.44
2019-02-22T13:06:41.048Z,103813.19
2019-02-22T13:11:42.657Z,103814.59
2019-02-22T13:16:44.204Z,103829.13
2019-02-22T13:21:45.843Z,103833.39
2019-02-22T13:26:47.457Z,103843.48
2019-02-22T13:31:49.030Z,103846.64
2019-02-22T13:36:50.658Z,103843.78
2019-02-22T13:41:52.207Z,103841.23
2019-02-22T13:46:55.774Z,103847.94
2019-02-22T13:51:57.327Z,103866.33
2019-02-22T13:56:58.869Z,103860.80
2019-02-22T14:02:01.132Z,103847.74
2019-02-22T14:07:03.174Z,103847.48
2019-02-22T14:12:04.738Z,103850.13
2019-02-22T14:17:06.285Z,103850.70
2019-02-22T14:22:07.809Z,103853.65
2019-02-22T14:27:09.931Z,103865.81
2019-02-22T14:32:11.556Z,103871.09
2019-02-22T14:37:13.104Z,103866.33
2019-02-22T14:42:14.676Z,103840.48
2019-02-22T14:47:16.229Z,103841.05
2019-02-22T14:52:17.838Z,103846.33
2019-02-22T14:57:19.424Z,103853.03
2019-02-22T15:02:20.999Z,103862.05
2019-02-22T15:07:22.644Z,103851.14
2019-02-22T15:12:24.852Z,103846.33
2019-02-22T15:17:27.398Z,103847.18
2019-02-22T15:22:32.227Z,103848.90
2019-02-22T15:27:36.259Z,103857.34
2019-02-22T15:32:37.371Z,103864.02
2019-02-22T15:37:39.013Z,103855.80
2019-02-22T15:42:40.814Z,103862.48
2019-02-22T15:47:42.427Z,103873.53
2019-02-22T15:52:44.545Z,103865.81
2019-02-22T15:57:46.273Z,103863.41
2019-02-22T16:02:48.381Z,103863.41
2019-02-22T16:07:50.345Z,103857.77
2019-02-22T16:12:51.901Z,103867.53
2019-02-22T16:17:53.640Z,103867.13
2019-02-22T16:22:55.266Z,103877.88
2019-02-22T16:27:56.804Z,103897.75
2019-02-22T16:32:58.413Z,103892.88
2019-02-22T16:38:00.206Z,103882.88
2019-02-22T16:43:02.129Z,103905.05
2019-02-22T16:48:04.265Z,103907.16
2019-02-22T16:53:05.832Z,103906.33
2019-02-22T16:58:07.783Z,103899.34
2019-02-22T17:03:09.469Z,103887.87
2019-02-22T17:08:11.032Z,103897.63
2019-02-22T17:13:12.592Z,103901.64
2019-02-22T17:18:14.595Z,103905.38
2019-02-22T17:23:16.170Z,103902.33
2019-02-22T17:28:18.078Z,103907.84
2019-02-22T17:33:19.665Z,103924.95
2019-02-22T17:38:21.266Z,103934.19
2019-02-22T17:43:23.707Z,103928.42
2019-02-22T17:48:25.259Z,103936.55
2019-02-22T17:53:27.014Z,103947.89
2019-02-22T17:58:28.761Z,103951.98
2019-02-22T18:03:30.430Z,103948.19
2019-02-22T18:08:32.415Z,103950.94
2019-02-22T18:13:34.728Z,103951.73
2019-02-22T18:18:36.771Z,103937.86
2019-02-22T18:23:38.410Z,103939.58
2019-02-22T18:28:40.043Z,103923.92
2019-02-22T18:33:41.978Z,103919.29
2019-02-22T18:38:43.644Z,103931.95
2019-02-22T18:43:45.560Z,103924.84
2019-02-22T18:48:47.221Z,103928.11
2019-02-22T18:53:49.357Z,103917.86
2019-02-22T18:58:51.361Z,103922.12
2019-02-22T19:03:53.011Z,103912.27
2019-02-22T19:08:54.713Z,103929.98
2019-02-22T19:13:56.304Z,103927.78
2019-02-22T19:18:57.892Z,103933.42
2019-02-22T19:23:59.487Z,103942.73
2019-02-22T19:29:01.204Z,103932.56
2019-02-22T19:34:03.162Z,103943.33
2019-02-22T19:39:05.165Z,103956.66
2019-02-22T19:44:06.816Z,103952.81
2019-02-22T19:49:08.500Z,103965.24
2019-02-22T19:54:10.065Z,103961.23
2019-02-22T19:59:12.723Z,103966.56
2019-02-22T20:04:14.660Z,103963.77
2019-02-22T20:09:16.502Z,103958.33
2019-02-22T20:14:18.464Z,103955.36
2019-02-22T20:19:20.618Z,103938.37
2019-02-22T20:24:23.445Z,103947.53
2019-02-22T20:29:25.340Z,103953.64
2019-02-22T20:34:29.035Z,103952.93
2019-02-22T20:39:30.760Z,103953.46
2019-02-22T20:44:32.405Z,103957.95
2019-02-22T20:49:34.097Z,103964.00
2019-02-22T20:54:35.806Z,103966.55
2019-02-22T20:59:37.488Z,103971.23
2019-02-22T21:04:39.114Z,103981.50
2019-02-22T21:09:41.112Z,103981.84
2019-02-22T21:14:43.055Z,103983.10
2019-02-22T21:19:44.645Z,103982.13
2019-02-22T21:24:46.630Z,103983.21
2019-02-22T21:29:48.197Z,103976.31
2019-02-22T21:34:49.775Z,103970.72
2019-02-22T21:39:51.429Z,103974.59
2019-02-22T21:44:53.049Z,103967.44
2019-02-22T21:49:54.823Z,103964.98
2019-02-22T21:54:56.439Z,103956.38
2019-02-22T21:59:57.987Z,103959.63
2019-02-22T22:04:59.566Z,103966.11
2019-02-22T22:10:01.584Z,103977.41
2019-02-22T22:15:03.270Z,103969.36
2019-02-22T22:20:04.839Z,103965.20
2019-02-22T22:25:07.256Z,103971.37
2019-02-22T22:30:09.620Z,103961.52
2019-02-22T22:35:11.317Z,103961.22
2019-02-22T22:40:12.889Z,103959.28
2019-02-22T22:45:14.587Z,103958.29
2019-02-22T22:50:16.123Z,103962.89
2019-02-22T22:55:17.829Z,103968.84
2019-02-22T23:00:35.672Z,103977.37
2019-02-22T23:05:37.358Z,103974.50
2019-02-22T23:10:38.882Z,103966.44
2019-02-22T23:15:40.442Z,103968.42
2019-02-22T23:20:42.330Z,103974.27
2019-02-22T23:25:43.875Z,103986.09
2019-02-22T23:30:45.477Z,103979.30
2019-02-22T23:35:47.023Z,103976.45
2019-02-22T23:40:48.591Z,103981.56
2019-02-22T23:45:50.156Z,103973.12
2019-02-22T23:50:51.709Z,103962.55
2019-02-22T23:55:53.615Z,103959.84
